createdAt,value
2023-07-22T00:02:01.133Z,8.18
2023-07-22T00:04:28.456Z,8.93
2023-07-22T00:06:55.662Z,8.75
2023-07-22T00:09:22.904Z,7.78
2023-07-22T00:11:51.669Z,8.68
2023-07-22T00:14:18.924Z,7.53
2023-07-22T00:16:46.203Z,8.45
2023-07-22T00:19:15.318Z,8.27
2023-07-22T00:21:42.589Z,8.13
2023-07-22T00:24:09.892Z,8.38
2023-07-22T00:26:37.160Z,8.00
2023-07-22T00:29:05.925Z,8.85
2023-07-22T00:31:33.092Z,7.63
2023-07-22T00:34:00.290Z,8.13
2023-07-22T00:36:27.862Z,9.23
2023-07-22T00:38:55.462Z,8.55
2023-07-22T00:41:22.975Z,8.80
2023-07-22T00:43:50.188Z,9.98
2023-07-22T00:46:17.509Z,8.43
2023-07-22T00:48:44.838Z,8.95
2023-07-22T00:51:12.092Z,8.05
2023-07-22T00:53:39.359Z,8.88
2023-07-22T00:56:06.718Z,8.50
2023-07-22T00:58:34.891Z,8.57
2023-07-22T01:01:02.248Z,7.65
2023-07-22T01:03:29.521Z,9.05
2023-07-22T01:05:58.157Z,8.77
2023-07-22T01:08:25.331Z,8.07
2023-07-22T01:10:52.503Z,8.27
2023-07-22T01:13:20.660Z,8.77
2023-07-22T01:15:47.974Z,8.55
2023-07-22T01:18:15.145Z,7.85
2023-07-22T01:20:42.361Z,7.85
2023-07-22T01:23:12.257Z,8.13
2023-07-22T01:25:39.541Z,8.27
2023-07-22T01:28:11.675Z,8.68
2023-07-22T01:30:38.986Z,7.57
2023-07-22T01:33:06.293Z,7.80
2023-07-22T01:35:34.485Z,7.82
2023-07-22T01:38:01.765Z,8.82
2023-07-22T01:40:29.688Z,8.50
2023-07-22T01:42:56.924Z,7.63
2023-07-22T01:45:24.227Z,8.27
2023-07-22T01:47:51.517Z,8.77
2023-07-22T01:50:19.833Z,8.10
2023-07-22T01:52:47.680Z,7.80
2023-07-22T01:55:14.957Z,8.07
2023-07-22T01:57:43.782Z,8.35
2023-07-22T02:00:12.214Z,8.48
2023-07-22T02:02:39.778Z,8.32
2023-07-22T02:05:07.290Z,8.50
2023-07-22T02:07:34.942Z,7.78
2023-07-22T02:10:02.213Z,9.23
2023-07-22T02:12:29.748Z,8.68
2023-07-22T02:14:57.015Z,8.27
2023-07-22T02:17:24.696Z,8.02
2023-07-22T02:19:53.308Z,8.80
2023-07-22T02:22:20.554Z,8.90
2023-07-22T02:24:47.894Z,9.18
2023-07-22T02:27:15.390Z,8.85
2023-07-22T02:29:42.632Z,8.90
2023-07-22T02:32:10.062Z,8.60
2023-07-22T02:34:38.501Z,8.65
2023-07-22T02:37:06.338Z,8.90
2023-07-22T02:39:33.599Z,8.55
2023-07-22T02:42:00.805Z,7.75
2023-07-22T02:44:28.318Z,8.85
2023-07-22T02:46:55.560Z,8.48
2023-07-22T02:49:22.782Z,8.80
2023-07-22T02:51:49.962Z,8.05
2023-07-22T02:54:18.200Z,8.45
2023-07-22T02:56:45.442Z,8.88
2023-07-22T02:59:12.678Z,9.23
2023-07-22T03:01:40.682Z,9.88
2023-07-22T03:04:08.010Z,7.63
2023-07-22T03:06:35.340Z,8.70
2023-07-22T03:09:02.636Z,9.15
2023-07-22T03:11:29.869Z,8.35
2023-07-22T03:13:57.094Z,8.05
2023-07-22T03:16:24.765Z,7.68
2023-07-22T03:18:52.151Z,7.60
2023-07-22T03:21:19.412Z,7.60
2023-07-22T03:23:46.731Z,8.05
2023-07-22T03:26:13.924Z,7.75
2023-07-22T03:28:42.689Z,7.68
2023-07-22T03:31:10.122Z,7.85
2023-07-22T03:33:37.463Z,7.47
2023-07-22T03:36:05.237Z,6.80
2023-07-22T03:38:32.401Z,7.45
2023-07-22T03:40:59.644Z,7.15
2023-07-22T03:43:26.811Z,7.28
2023-07-22T03:45:54.119Z,6.75
2023-07-22T03:48:21.329Z,7.65
2023-07-22T03:50:49.017Z,7.03
2023-07-22T03:53:17.182Z,6.80
2023-07-22T03:55:44.326Z,9.20
2023-07-22T03:58:11.719Z,7.88
2023-07-22T04:00:39.942Z,10.20
2023-07-22T04:03:07.316Z,7.90
2023-07-22T04:05:34.584Z,8.88
2023-07-22T04:08:01.740Z,8.98
2023-07-22T04:10:28.943Z,7.82
2023-07-22T04:12:56.132Z,7.40
2023-07-22T04:15:23.327Z,7.00
2023-07-22T04:17:50.634Z,7.68
2023-07-22T04:20:19.112Z,6.90
2023-07-22T04:22:46.420Z,6.82
2023-07-22T04:25:13.883Z,7.38
2023-07-22T04:27:41.238Z,7.50
2023-07-22T04:30:08.818Z,7.32
2023-07-22T04:32:36.131Z,7.63
2023-07-22T04:35:04.543Z,7.35
2023-07-22T04:37:31.843Z,7.80
2023-07-22T04:39:59.032Z,7.18
2023-07-22T04:42:26.920Z,7.70
2023-07-22T04:44:54.139Z,7.30
2023-07-22T04:47:21.382Z,7.13
2023-07-22T04:49:48.591Z,8.00
2023-07-22T04:52:15.751Z,7.68
2023-07-22T04:54:43.384Z,7.40
2023-07-22T04:57:10.657Z,7.78
2023-07-22T04:59:38.456Z,7.28
2023-07-22T05:02:05.893Z,8.35
2023-07-22T05:04:33.176Z,8.43
2023-07-22T05:07:00.391Z,8.07
2023-07-22T05:09:27.644Z,8.15
2023-07-22T05:11:54.844Z,8.20
2023-07-22T05:14:22.169Z,7.47
2023-07-22T05:16:49.513Z,6.53
2023-07-22T05:19:16.788Z,7.72
2023-07-22T05:21:43.991Z,7.47
2023-07-22T05:24:11.379Z,7.50
2023-07-22T05:26:38.666Z,8.13
2023-07-22T05:29:05.868Z,7.00
2023-07-22T05:31:33.366Z,6.68
2023-07-22T05:34:00.558Z,6.95
2023-07-22T05:36:28.042Z,6.70
2023-07-22T05:38:55.766Z,7.18
2023-07-22T05:41:23.033Z,7.10
2023-07-22T05:43:50.285Z,7.38
2023-07-22T05:46:17.618Z,7.18
2023-07-22T05:48:45.000Z,7.95
2023-07-22T05:51:12.891Z,8.60
2023-07-22T05:53:41.102Z,8.35
2023-07-22T05:56:08.499Z,8.40
2023-07-22T05:58:36.351Z,8.23
2023-07-22T06:01:03.763Z,7.82
2023-07-22T06:03:31.034Z,7.75
2023-07-22T06:05:58.257Z,8.57
2023-07-22T06:08:26.954Z,8.38
2023-07-22T06:10:54.590Z,9.70
2023-07-22T06:13:21.856Z,8.70
2023-07-22T06:15:49.086Z,9.00
2023-07-22T06:18:16.320Z,8.60
2023-07-22T06:20:43.625Z,8.73
2023-07-22T06:23:10.825Z,10.07
2023-07-22T06:25:38.112Z,8.35
2023-07-22T06:28:06.221Z,9.77
2023-07-22T06:30:33.714Z,7.60
2023-07-22T06:33:01.015Z,7.32
2023-07-22T06:35:28.829Z,7.82
2023-07-22T06:37:56.089Z,8.40
2023-07-22T06:40:23.261Z,9.77
2023-07-22T06:42:50.483Z,8.43
2023-07-22T06:45:18.257Z,8.23
2023-07-22T06:47:45.626Z,8.68
2023-07-22T06:50:13.198Z,8.60
2023-07-22T06:52:40.425Z,10.93
2023-07-22T06:55:07.788Z,9.05
2023-07-22T06:57:35.335Z,9.13
2023-07-22T07:00:02.586Z,9.70
2023-07-22T07:02:29.909Z,8.25
2023-07-22T07:04:57.188Z,8.82
2023-07-22T07:07:24.379Z,8.70
2023-07-22T07:09:51.808Z,8.68
2023-07-22T07:12:19.003Z,8.80
2023-07-22T07:14:46.327Z,8.80
2023-07-22T07:17:13.539Z,8.98
2023-07-22T07:19:40.745Z,8.93
2023-07-22T07:22:07.978Z,8.80
2023-07-22T07:24:35.157Z,9.88
2023-07-22T07:27:02.371Z,9.27
2023-07-22T07:31:59.775Z,10.13
2023-07-22T07:34:27.036Z,9.93
2023-07-22T07:36:54.637Z,9.50
2023-07-22T07:39:21.807Z,8.55
2023-07-22T07:41:49.005Z,8.63
2023-07-22T07:44:16.212Z,8.70
2023-07-22T07:46:43.749Z,8.88
2023-07-22T07:49:10.959Z,8.82
2023-07-22T07:51:38.374Z,8.77
2023-07-22T07:54:08.138Z,8.65
2023-07-22T07:56:35.402Z,7.75
2023-07-22T07:59:03.829Z,8.48
2023-07-22T08:01:31.067Z,9.43
2023-07-22T08:03:58.360Z,9.48
2023-07-22T08:06:25.975Z,8.75
2023-07-22T08:08:53.404Z,8.40
2023-07-22T08:11:30.977Z,8.10
2023-07-22T08:13:58.168Z,9.25
2023-07-22T08:16:26.163Z,7.95
2023-07-22T08:18:53.611Z,7.90
2023-07-22T08:21:21.058Z,9.43
2023-07-22T08:23:48.796Z,8.38
2023-07-22T08:26:19.131Z,8.98
2023-07-22T08:28:46.378Z,8.30
2023-07-22T08:31:13.595Z,8.07
2023-07-22T08:33:42.102Z,7.10
2023-07-22T08:36:10.396Z,6.50
2023-07-22T08:38:37.848Z,7.63
2023-07-22T08:41:05.103Z,6.95
2023-07-22T08:43:32.590Z,7.78
2023-07-22T08:46:01.982Z,6.70
2023-07-22T08:48:33.624Z,6.30
2023-07-22T08:51:04.756Z,6.40
2023-07-22T08:53:34.621Z,7.13
2023-07-22T08:56:02.401Z,5.82
2023-07-22T08:58:30.749Z,7.47
2023-07-22T09:00:58.426Z,5.65
2023-07-22T09:03:27.107Z,5.80
2023-07-22T09:05:54.484Z,5.18
2023-07-22T09:08:22.049Z,5.45
2023-07-22T09:10:49.943Z,4.70
2023-07-22T09:13:17.533Z,5.35
2023-07-22T09:15:44.929Z,5.25
2023-07-22T09:18:12.274Z,5.53
2023-07-22T09:20:39.546Z,4.63
2023-07-22T09:23:13.384Z,3.97
2023-07-22T09:25:42.121Z,4.38
2023-07-22T09:28:09.790Z,4.68
2023-07-22T09:30:39.381Z,4.40
2023-07-22T09:33:07.525Z,3.78
2023-07-22T09:35:47.915Z,4.32
2023-07-22T09:38:18.231Z,3.38
2023-07-22T09:40:45.393Z,4.15
2023-07-22T09:43:15.642Z,3.40
2023-07-22T09:45:42.903Z,3.40
2023-07-22T09:48:11.517Z,3.83
2023-07-22T09:50:39.422Z,3.72
2023-07-22T09:53:06.941Z,3.90
2023-07-22T09:55:35.398Z,4.13
2023-07-22T09:58:06.664Z,4.07
2023-07-22T10:00:37.687Z,4.00
2023-07-22T10:03:06.741Z,3.53
2023-07-22T10:05:35.726Z,3.60
2023-07-22T10:08:03.774Z,4.03
2023-07-22T10:10:30.925Z,4.50
2023-07-22T10:12:58.646Z,3.45
2023-07-22T10:15:30.880Z,4.22
2023-07-22T10:17:58.861Z,4.10
2023-07-22T10:20:26.199Z,2.78
2023-07-22T10:22:53.742Z,3.60
2023-07-22T10:25:21.557Z,3.50
2023-07-22T10:27:49.740Z,3.08
2023-07-22T10:30:17.856Z,3.33
2023-07-22T10:32:48.268Z,2.70
2023-07-22T10:35:19.632Z,2.47
2023-07-22T10:37:47.286Z,2.88
2023-07-22T10:40:20.714Z,2.83
2023-07-22T10:42:55.176Z,3.00
2023-07-22T10:45:33.510Z,2.83
2023-07-22T10:48:05.665Z,3.10
2023-07-22T10:50:44.189Z,2.78
2023-07-22T10:53:15.682Z,2.72
2023-07-22T10:56:02.819Z,2.42
2023-07-22T10:58:33.234Z,3.25
2023-07-22T11:01:25.211Z,2.58
2023-07-22T11:04:07.543Z,2.95
2023-07-22T11:06:35.204Z,3.20
2023-07-22T11:09:02.739Z,2.42
2023-07-22T11:11:39.984Z,2.50
2023-07-22T11:14:22.201Z,2.20
2023-07-22T11:16:49.795Z,2.22
2023-07-22T11:19:17.790Z,2.35
2023-07-22T11:21:45.895Z,2.28
2023-07-22T11:24:13.129Z,2.47
2023-07-22T11:26:41.796Z,2.50
2023-07-22T11:29:10.979Z,2.80
2023-07-22T11:31:39.446Z,2.53
2023-07-22T11:34:06.749Z,2.50
2023-07-22T11:36:35.554Z,3.10
2023-07-22T11:39:03.986Z,2.80
2023-07-22T11:41:31.718Z,3.10
2023-07-22T11:44:02.418Z,2.50
2023-07-22T11:46:30.134Z,2.55
2023-07-22T11:48:57.784Z,2.30
2023-07-22T11:51:26.311Z,2.47
2023-07-22T11:53:54.826Z,2.80
2023-07-22T11:56:23.008Z,2.97
2023-07-22T11:58:51.363Z,2.28
2023-07-22T12:01:18.692Z,2.13
2023-07-22T12:03:46.101Z,1.67
2023-07-22T12:06:13.874Z,1.98
2023-07-22T12:08:48.517Z,2.10
2023-07-22T12:11:22.808Z,2.00
2023-07-22T12:13:51.863Z,1.88
2023-07-22T12:16:26.386Z,1.65
2023-07-22T12:18:57.440Z,2.05
2023-07-22T12:21:24.747Z,1.90
2023-07-22T12:23:52.269Z,2.67
2023-07-22T12:26:19.454Z,2.38
2023-07-22T12:28:46.712Z,2.95
2023-07-22T12:31:14.085Z,3.00
2023-07-22T12:33:41.320Z,3.38
2023-07-22T12:36:08.584Z,2.65
2023-07-22T12:38:35.824Z,3.65
2023-07-22T12:41:03.368Z,3.92
2023-07-22T12:43:30.593Z,3.00
2023-07-22T12:45:59.119Z,2.92
2023-07-22T12:48:26.515Z,3.10
2023-07-22T12:50:53.718Z,2.63
2023-07-22T12:53:20.945Z,3.03
2023-07-22T12:55:48.199Z,2.47
2023-07-22T12:58:16.323Z,3.15
2023-07-22T13:00:43.516Z,2.90
2023-07-22T13:03:10.744Z,4.30
2023-07-22T13:05:38.036Z,2.92
2023-07-22T13:08:05.408Z,2.83
2023-07-22T13:10:35.342Z,2.70
2023-07-22T13:13:02.599Z,2.45
2023-07-22T13:15:29.771Z,2.70
2023-07-22T13:17:56.986Z,2.40
2023-07-22T13:20:24.202Z,3.17
2023-07-22T13:22:52.042Z,2.83
2023-07-22T13:25:19.186Z,2.38
2023-07-22T13:27:46.432Z,2.95
2023-07-22T13:30:14.611Z,2.97
2023-07-22T13:32:41.996Z,3.00
2023-07-22T13:35:10.651Z,3.65
2023-07-22T13:37:38.128Z,2.60
2023-07-22T13:40:11.045Z,3.30
2023-07-22T13:42:39.114Z,3.03
2023-07-22T13:45:06.937Z,2.70
2023-07-22T13:47:34.580Z,2.67
2023-07-22T13:50:01.871Z,3.13
2023-07-22T13:52:29.132Z,3.03
2023-07-22T13:54:56.417Z,2.40
2023-07-22T13:57:23.649Z,2.50
2023-07-22T13:59:50.940Z,2.72
2023-07-22T14:02:18.208Z,2.45
2023-07-22T14:04:45.567Z,3.22
2023-07-22T14:07:12.805Z,3.10
2023-07-22T14:09:40.086Z,2.72
2023-07-22T14:12:07.626Z,2.80
2023-07-22T14:14:34.938Z,2.72
2023-07-22T14:17:02.294Z,2.70
2023-07-22T14:19:29.590Z,2.65
2023-07-22T14:21:56.810Z,3.72
2023-07-22T14:24:24.250Z,5.53
2023-07-22T14:26:51.439Z,2.72
2023-07-22T14:29:18.668Z,2.65
2023-07-22T14:31:45.884Z,3.50
2023-07-22T14:34:13.065Z,2.30
2023-07-22T14:36:40.322Z,2.90
2023-07-22T14:39:07.575Z,2.20
2023-07-22T14:41:34.921Z,3.65
2023-07-22T14:44:02.177Z,2.35
2023-07-22T14:46:29.699Z,2.42
2023-07-22T14:48:56.979Z,2.42
2023-07-22T14:51:24.207Z,3.38
2023-07-22T14:53:52.424Z,2.90
2023-07-22T14:56:19.898Z,2.55
2023-07-22T14:58:47.196Z,2.95
2023-07-22T15:01:14.438Z,3.08
2023-07-22T15:03:41.654Z,3.28
2023-07-22T15:06:09.008Z,3.40
2023-07-22T15:08:36.319Z,3.35
2023-07-22T15:11:03.503Z,3.47
2023-07-22T15:13:30.738Z,3.03
2023-07-22T15:15:58.094Z,3.15
2023-07-22T15:18:25.554Z,2.83
2023-07-22T15:20:53.652Z,2.90
2023-07-22T15:23:24.373Z,2.33
2023-07-22T15:25:52.299Z,2.55
2023-07-22T15:28:19.522Z,3.22
2023-07-22T15:30:46.924Z,2.50
2023-07-22T15:33:14.171Z,2.38
2023-07-22T15:35:42.063Z,2.65
2023-07-22T15:38:09.251Z,2.22
2023-07-22T15:40:37.788Z,1.70
2023-07-22T15:43:05.252Z,1.92
2023-07-22T15:45:32.593Z,1.83
2023-07-22T15:48:00.985Z,2.55
2023-07-22T15:50:28.619Z,1.58
2023-07-22T15:52:55.961Z,1.63
2023-07-22T15:55:23.212Z,2.15
2023-07-22T15:57:50.653Z,2.45
2023-07-22T16:00:18.016Z,2.35
2023-07-22T16:02:45.488Z,2.42
2023-07-22T16:05:22.556Z,2.13
2023-07-22T16:07:50.626Z,1.92
2023-07-22T16:10:18.010Z,2.40
2023-07-22T16:12:45.231Z,2.38
2023-07-22T16:15:12.464Z,2.13
2023-07-22T16:17:39.738Z,2.40
2023-07-22T16:20:07.545Z,2.67
2023-07-22T16:22:35.328Z,2.85
2023-07-22T16:25:03.263Z,2.47
2023-07-22T16:27:30.592Z,3.20
2023-07-22T16:29:57.985Z,2.80
2023-07-22T16:32:25.283Z,2.97
2023-07-22T16:34:52.527Z,3.33
2023-07-22T16:37:19.804Z,3.03
2023-07-22T16:39:47.064Z,3.15
2023-07-22T16:42:14.316Z,3.17
2023-07-22T16:44:41.654Z,3.17
2023-07-22T16:47:08.987Z,3.15
2023-07-22T16:49:36.240Z,3.00
2023-07-22T16:52:03.485Z,2.67
2023-07-22T16:54:30.845Z,3.65
2023-07-22T16:56:58.046Z,3.30
2023-07-22T16:59:25.272Z,3.30
2023-07-22T17:01:52.503Z,3.35
2023-07-22T17:04:20.138Z,2.92
2023-07-22T17:06:47.370Z,3.40
2023-07-22T17:09:14.970Z,3.50
2023-07-22T17:11:43.060Z,2.95
2023-07-22T17:14:10.304Z,3.35
2023-07-22T17:16:37.519Z,3.25
2023-07-22T17:19:04.853Z,3.38
2023-07-22T17:21:32.132Z,3.00
2023-07-22T17:23:59.409Z,2.50
2023-07-22T17:26:26.650Z,3.05
2023-07-22T17:28:53.847Z,3.08
2023-07-22T17:31:21.152Z,3.40
2023-07-22T17:33:48.380Z,3.10
2023-07-22T17:36:15.620Z,2.80
2023-07-22T17:38:42.844Z,2.78
2023-07-22T17:41:10.102Z,2.67
2023-07-22T17:43:37.362Z,3.38
2023-07-22T17:46:05.497Z,3.55
2023-07-22T17:48:32.779Z,3.03
2023-07-22T17:51:00.105Z,4.57
2023-07-22T17:53:27.369Z,3.08
2023-07-22T17:55:54.571Z,3.15
2023-07-22T17:58:21.795Z,2.72
2023-07-22T18:00:49.034Z,2.60
2023-07-22T18:03:16.387Z,3.60
2023-07-22T18:05:49.773Z,3.35
2023-07-22T18:08:17.091Z,3.40
2023-07-22T18:10:44.429Z,2.65
2023-07-22T18:13:11.722Z,2.83
2023-07-22T18:15:38.973Z,3.47
2023-07-22T18:18:06.356Z,2.88
2023-07-22T18:20:35.664Z,2.75
2023-07-22T18:23:03.048Z,2.25
2023-07-22T18:25:30.329Z,3.22
2023-07-22T18:27:57.552Z,3.00
2023-07-22T18:30:24.736Z,2.90
2023-07-22T18:32:51.986Z,3.13
2023-07-22T18:35:19.310Z,2.72
2023-07-22T18:37:46.571Z,2.45
2023-07-22T18:40:13.991Z,3.10
2023-07-22T18:42:41.219Z,2.58
2023-07-22T18:45:08.837Z,2.85
2023-07-22T18:47:36.087Z,2.55
2023-07-22T18:50:03.787Z,2.63
2023-07-22T18:52:30.967Z,2.42
2023-07-22T18:54:58.223Z,3.53
2023-07-22T18:57:25.689Z,3.35
2023-07-22T18:59:53.024Z,2.90
2023-07-22T19:02:20.250Z,2.65
2023-07-22T19:04:47.490Z,3.25
2023-07-22T19:07:14.723Z,2.33
2023-07-22T19:09:41.980Z,2.75
2023-07-22T19:12:09.250Z,3.20
2023-07-22T19:14:38.247Z,2.38
2023-07-22T19:17:05.715Z,2.88
2023-07-22T19:19:32.914Z,3.10
2023-07-22T19:22:00.119Z,2.85
2023-07-22T19:24:27.457Z,2.72
2023-07-22T19:26:54.732Z,2.17
2023-07-22T19:29:22.610Z,2.85
2023-07-22T19:31:49.934Z,2.38
2023-07-22T19:34:17.289Z,2.38
2023-07-22T19:36:44.584Z,2.15
2023-07-22T19:39:12.100Z,3.05
2023-07-22T19:41:41.636Z,2.28
2023-07-22T19:44:09.083Z,2.20
2023-07-22T19:46:36.338Z,2.10
2023-07-22T19:49:03.592Z,2.60
2023-07-22T19:51:30.990Z,2.35
2023-07-22T19:53:58.224Z,2.50
2023-07-22T19:56:25.515Z,2.63
2023-07-22T19:58:52.707Z,2.97
2023-07-22T20:01:20.414Z,2.60
2023-07-22T20:03:47.992Z,2.53
2023-07-22T20:06:15.433Z,2.80
2023-07-22T20:08:42.700Z,2.35
2023-07-22T20:11:10.073Z,2.20
2023-07-22T20:13:37.837Z,2.17
2023-07-22T20:16:05.654Z,2.53
2023-07-22T20:18:32.995Z,2.90
2023-07-22T20:21:00.633Z,2.80
2023-07-22T20:23:27.879Z,2.33
2023-07-22T20:25:56.544Z,2.35
2023-07-22T20:28:23.828Z,2.40
2023-07-22T20:30:51.182Z,3.95
2023-07-22T20:33:18.678Z,2.75
2023-07-22T20:35:45.902Z,2.30
2023-07-22T20:38:13.138Z,2.67
2023-07-22T20:40:40.484Z,2.72
2023-07-22T20:43:07.834Z,2.92
2023-07-22T20:45:35.030Z,2.80
2023-07-22T20:48:02.281Z,2.38
2023-07-22T20:50:29.562Z,2.97
2023-07-22T20:52:56.744Z,3.00
2023-07-22T20:55:23.988Z,2.83
2023-07-22T20:57:51.190Z,3.10
2023-07-22T21:00:18.538Z,2.65
2023-07-22T21:02:46.295Z,2.40
2023-07-22T21:05:13.650Z,2.42
2023-07-22T21:07:41.065Z,2.60
2023-07-22T21:10:08.912Z,2.80
2023-07-22T21:12:36.279Z,3.20
2023-07-22T21:15:03.666Z,3.17
2023-07-22T21:17:31.136Z,2.90
2023-07-22T21:19:58.458Z,3.58
2023-07-22T21:22:25.769Z,3.70
2023-07-22T21:24:52.979Z,3.50
2023-07-22T21:27:22.441Z,2.80
2023-07-22T21:29:53.283Z,3.40
2023-07-22T21:32:20.532Z,3.33
2023-07-22T21:34:47.809Z,2.95
2023-07-22T21:37:15.248Z,3.53
2023-07-22T21:39:42.434Z,3.65
2023-07-22T21:42:09.664Z,3.70
2023-07-22T21:44:36.883Z,4.35
2023-07-22T21:47:04.178Z,3.80
2023-07-22T21:49:31.909Z,3.50
2023-07-22T21:51:59.116Z,3.92
2023-07-22T21:54:26.366Z,3.60
2023-07-22T21:56:57.128Z,4.75
2023-07-22T21:59:24.357Z,3.67
2023-07-22T22:01:51.681Z,4.32
2023-07-22T22:04:19.035Z,3.65
2023-07-22T22:06:47.070Z,4.20
2023-07-22T22:09:14.432Z,3.55
2023-07-22T22:11:41.698Z,4.68
2023-07-22T22:14:08.949Z,4.35
2023-07-22T22:16:36.297Z,3.80
2023-07-22T22:19:04.220Z,4.00
2023-07-22T22:21:31.517Z,5.40
2023-07-22T22:23:58.774Z,6.28
2023-07-22T22:26:26.054Z,8.85
2023-07-22T22:28:53.361Z,6.63
2023-07-22T22:31:20.661Z,5.97
2023-07-22T22:33:47.921Z,4.47
2023-07-22T22:36:15.157Z,9.98
2023-07-22T22:38:42.357Z,5.47
2023-07-22T22:41:09.551Z,5.57
2023-07-22T22:43:36.731Z,4.25
2023-07-22T22:46:03.972Z,4.65
2023-07-22T22:48:31.136Z,4.38
2023-07-22T22:50:58.416Z,3.78
2023-07-22T22:53:25.937Z,4.20
2023-07-22T22:55:53.215Z,3.60
2023-07-22T22:58:20.863Z,3.15
2023-07-22T23:00:48.355Z,4.00
2023-07-22T23:03:15.850Z,3.63
2023-07-22T23:05:43.232Z,3.33
2023-07-22T23:08:10.510Z,4.07
2023-07-22T23:10:37.784Z,3.53
2023-07-22T23:13:05.047Z,3.28
2023-07-22T23:15:32.298Z,3.45
2023-07-22T23:18:00.724Z,3.45
2023-07-22T23:20:28.162Z,3.50
2023-07-22T23:22:55.514Z,3.30
2023-07-22T23:25:22.824Z,3.05
2023-07-22T23:27:50.037Z,3.42
2023-07-22T23:30:18.149Z,3.42
2023-07-22T23:32:45.512Z,3.45
2023-07-22T23:35:12.895Z,3.70
2023-07-22T23:37:40.105Z,3.85
2023-07-22T23:40:08.442Z,4.15
2023-07-22T23:42:35.807Z,3.47
2023-07-22T23:45:04.436Z,3.58
2023-07-22T23:47:32.835Z,3.28
2023-07-22T23:50:01.268Z,3.45
2023-07-22T23:52:28.491Z,3.45
2023-07-22T23:54:55.758Z,3.60
2023-07-22T23:57:22.993Z,3.60
2023-07-22T23:59:50.231Z,3.53
